sensor_id;sensor_type;location;lat;lon;timestamp;temperature;humidity
12688;DHT22;6408;59.388;17.798;2022-12-18T00:00:49;-0.40;99.90
12688;DHT22;6408;59.388;17.798;2022-12-18T00:03:16;-0.40;99.90
12688;DHT22;6408;59.388;17.798;2022-12-18T00:05:47;-0.40;99.90
12688;DHT22;6408;59.388;17.798;2022-12-18T00:08:15;-0.50;99.90
12688;DHT22;6408;59.388;17.798;2022-12-18T00:10:43;-0.40;99.90
12688;DHT22;6408;59.388;17.798;2022-12-18T00:13:11;-0.40;99.90
12688;DHT22;6408;59.388;17.798;2022-12-18T00:15:39;-0.30;99.90
12688;DHT22;6408;59.388;17.798;2022-12-18T00:18:08;-0.40;99.90
12688;DHT22;6408;59.388;17.798;2022-12-18T00:20:39;-0.40;99.90
12688;DHT22;6408;59.388;17.798;2022-12-18T00:23:07;-0.40;99.90
12688;DHT22;6408;59.388;17.798;2022-12-18T00:25:34;-0.40;99.90
12688;DHT22;6408;59.388;17.798;2022-12-18T00:28:01;-0.30;99.90
12688;DHT22;6408;59.388;17.798;2022-12-18T00:30:28;-0.40;99.90
12688;DHT22;6408;59.388;17.798;2022-12-18T00:32:55;-0.40;99.90
12688;DHT22;6408;59.388;17.798;2022-12-18T00:35:25;-0.30;99.90
12688;DHT22;6408;59.388;17.798;2022-12-18T00:37:52;-0.30;99.90
12688;DHT22;6408;59.388;17.798;2022-12-18T00:40:19;-0.30;99.90
12688;DHT22;6408;59.388;17.798;2022-12-18T00:42:47;-0.30;99.90
12688;DHT22;6408;59.388;17.798;2022-12-18T00:45:24;-0.40;99.90
12688;DHT22;6408;59.388;17.798;2022-12-18T00:47:52;-0.30;99.90
12688;DHT22;6408;59.388;17.798;2022-12-18T00:50:19;-0.30;99.90
12688;DHT22;6408;59.388;17.798;2022-12-18T00:52:48;-0.20;99.90
12688;DHT22;6408;59.388;17.798;2022-12-18T00:55:15;-0.20;99.90
12688;DHT22;6408;59.388;17.798;2022-12-18T00:57:42;-0.20;99.90
12688;DHT22;6408;59.388;17.798;2022-12-18T01:00:11;-0.20;99.90
12688;DHT22;6408;59.388;17.798;2022-12-18T01:02:40;-0.20;99.90
12688;DHT22;6408;59.388;17.798;2022-12-18T01:05:08;-0.10;99.90
12688;DHT22;6408;59.388;17.798;2022-12-18T01:07:36;-0.20;99.90
12688;DHT22;6408;59.388;17.798;2022-12-18T01:10:06;-0.10;99.90
12688;DHT22;6408;59.388;17.798;2022-12-18T01:12:34;-0.10;99.90
12688;DHT22;6408;59.388;17.798;2022-12-18T01:15:01;-0.20;99.90
12688;DHT22;6408;59.388;17.798;2022-12-18T01:17:29;-0.10;99.90
12688;DHT22;6408;59.388;17.798;2022-12-18T01:19:56;-0.10;99.90
12688;DHT22;6408;59.388;17.798;2022-12-18T01:22:24;0.00;99.90
12688;DHT22;6408;59.388;17.798;2022-12-18T01:24:51;0.00;99.90
12688;DHT22;6408;59.388;17.798;2022-12-18T01:27:20;-0.10;99.90
12688;DHT22;6408;59.388;17.798;2022-12-18T01:29:47;-0.10;99.90
12688;DHT22;6408;59.388;17.798;2022-12-18T01:32:14;-0.10;99.90
12688;DHT22;6408;59.388;17.798;2022-12-18T01:34:41;0.00;99.90
12688;DHT22;6408;59.388;17.798;2022-12-18T01:37:08;0.00;99.90
12688;DHT22;6408;59.388;17.798;2022-12-18T01:39:36;0.00;99.90
12688;DHT22;6408;59.388;17.798;2022-12-18T01:42:05;0.00;99.90
12688;DHT22;6408;59.388;17.798;2022-12-18T01:45:08;-0.10;99.90
12688;DHT22;6408;59.388;17.798;2022-12-18T01:47:50;0.00;99.90
12688;DHT22;6408;59.388;17.798;2022-12-18T01:50:20;0.00;99.90
12688;DHT22;6408;59.388;17.798;2022-12-18T01:52:50;0.00;99.90
12688;DHT22;6408;59.388;17.798;2022-12-18T01:55:20;0.00;99.90
12688;DHT22;6408;59.388;17.798;2022-12-18T01:57:48;-0.10;99.90
12688;DHT22;6408;59.388;17.798;2022-12-18T02:00:20;0.00;99.90
12688;DHT22;6408;59.388;17.798;2022-12-18T02:02:48;0.00;99.90
12688;DHT22;6408;59.388;17.798;2022-12-18T02:05:17;0.00;99.90
12688;DHT22;6408;59.388;17.798;2022-12-18T02:07:52;0.10;99.90
12688;DHT22;6408;59.388;17.798;2022-12-18T02:10:26;0.10;99.90
12688;DHT22;6408;59.388;17.798;2022-12-18T02:13:02;0.10;99.90
12688;DHT22;6408;59.388;17.798;2022-12-18T02:15:39;0.10;99.90
12688;DHT22;6408;59.388;17.798;2022-12-18T02:18:11;0.10;99.90
12688;DHT22;6408;59.388;17.798;2022-12-18T02:20:44;0.10;99.90
12688;DHT22;6408;59.388;17.798;2022-12-18T02:23:24;0.10;99.90
12688;DHT22;6408;59.388;17.798;2022-12-18T02:26:04;0.10;99.90
12688;DHT22;6408;59.388;17.798;2022-12-18T02:28:39;0.10;99.90
12688;DHT22;6408;59.388;17.798;2022-12-18T02:31:11;0.00;99.90
12688;DHT22;6408;59.388;17.798;2022-12-18T02:33:40;0.00;99.90
12688;DHT22;6408;59.388;17.798;2022-12-18T02:36:10;0.00;99.90
12688;DHT22;6408;59.388;17.798;2022-12-18T02:38:39;0.10;99.90
12688;DHT22;6408;59.388;17.798;2022-12-18T02:41:10;0.10;99.90
12688;DHT22;6408;59.388;17.798;2022-12-18T02:43:38;0.10;99.90
12688;DHT22;6408;59.388;17.798;2022-12-18T02:46:25;0.00;99.90
12688;DHT22;6408;59.388;17.798;2022-12-18T02:48:57;0.00;99.90
12688;DHT22;6408;59.388;17.798;2022-12-18T02:51:30;0.00;99.90
12688;DHT22;6408;59.388;17.798;2022-12-18T02:54:04;0.00;99.90
12688;DHT22;6408;59.388;17.798;2022-12-18T02:56:39;0.10;99.90
12688;DHT22;6408;59.388;17.798;2022-12-18T02:59:13;0.00;99.90
12688;DHT22;6408;59.388;17.798;2022-12-18T03:01:45;0.00;99.90
12688;DHT22;6408;59.388;17.798;2022-12-18T03:04:22;0.00;99.90
12688;DHT22;6408;59.388;17.798;2022-12-18T03:06:55;0.00;99.90
12688;DHT22;6408;59.388;17.798;2022-12-18T03:09:27;-0.10;99.90
12688;DHT22;6408;59.388;17.798;2022-12-18T03:12:04;0.00;99.90
12688;DHT22;6408;59.388;17.798;2022-12-18T03:14:52;-0.10;99.90
12688;DHT22;6408;59.388;17.798;2022-12-18T03:17:23;-0.10;99.90
12688;DHT22;6408;59.388;17.798;2022-12-18T03:19:53;0.00;99.90
12688;DHT22;6408;59.388;17.798;2022-12-18T03:22:22;-0.10;99.90
12688;DHT22;6408;59.388;17.798;2022-12-18T03:24:51;-0.10;99.90
12688;DHT22;6408;59.388;17.798;2022-12-18T03:27:23;-0.10;99.90
12688;DHT22;6408;59.388;17.798;2022-12-18T03:29:55;-0.10;99.90
12688;DHT22;6408;59.388;17.798;2022-12-18T03:32:28;-0.10;99.90
12688;DHT22;6408;59.388;17.798;2022-12-18T03:34:59;-0.10;99.90
12688;DHT22;6408;59.388;17.798;2022-12-18T03:37:29;-0.10;99.90
12688;DHT22;6408;59.388;17.798;2022-12-18T03:39:56;-0.10;99.90
12688;DHT22;6408;59.388;17.798;2022-12-18T03:42:29;-0.10;99.90
12688;DHT22;6408;59.388;17.798;2022-12-18T03:45:03;-0.20;99.90
12688;DHT22;6408;59.388;17.798;2022-12-18T03:47:34;-0.20;99.90
12688;DHT22;6408;59.388;17.798;2022-12-18T03:50:09;-0.20;99.90
12688;DHT22;6408;59.388;17.798;2022-12-18T03:52:41;-0.20;99.90
12688;DHT22;6408;59.388;17.798;2022-12-18T03:55:11;-0.20;99.90
12688;DHT22;6408;59.388;17.798;2022-12-18T03:57:41;-0.20;99.90
12688;DHT22;6408;59.388;17.798;2022-12-18T04:00:11;-0.20;99.90
12688;DHT22;6408;59.388;17.798;2022-12-18T04:02:44;-0.20;99.90
12688;DHT22;6408;59.388;17.798;2022-12-18T04:05:13;-0.20;99.90
12688;DHT22;6408;59.388;17.798;2022-12-18T04:07:42;-0.30;99.90
12688;DHT22;6408;59.388;17.798;2022-12-18T04:10:12;-0.30;99.90
12688;DHT22;6408;59.388;17.798;2022-12-18T04:12:41;-0.20;99.90
12688;DHT22;6408;59.388;17.798;2022-12-18T04:15:10;-0.30;99.90
12688;DHT22;6408;59.388;17.798;2022-12-18T04:17:39;-0.30;99.90
12688;DHT22;6408;59.388;17.798;2022-12-18T04:20:07;-0.30;99.90
12688;DHT22;6408;59.388;17.798;2022-12-18T04:22:35;-0.30;99.90
12688;DHT22;6408;59.388;17.798;2022-12-18T04:25:03;-0.20;99.90
12688;DHT22;6408;59.388;17.798;2022-12-18T04:27:30;-0.20;99.90
12688;DHT22;6408;59.388;17.798;2022-12-18T04:29:59;-0.20;99.90
12688;DHT22;6408;59.388;17.798;2022-12-18T04:32:26;-0.20;99.90
12688;DHT22;6408;59.388;17.798;2022-12-18T04:34:53;-0.20;99.90
12688;DHT22;6408;59.388;17.798;2022-12-18T04:37:21;-0.20;99.90
12688;DHT22;6408;59.388;17.798;2022-12-18T04:39:48;-0.10;99.90
12688;DHT22;6408;59.388;17.798;2022-12-18T04:42:15;-0.10;99.90
12688;DHT22;6408;59.388;17.798;2022-12-18T04:44:42;-0.20;99.90
12688;DHT22;6408;59.388;17.798;2022-12-18T04:47:11;-0.20;99.90
12688;DHT22;6408;59.388;17.798;2022-12-18T04:49:39;-0.20;99.90
12688;DHT22;6408;59.388;17.798;2022-12-18T04:52:06;-0.20;99.90
12688;DHT22;6408;59.388;17.798;2022-12-18T04:54:33;-0.20;99.90
12688;DHT22;6408;59.388;17.798;2022-12-18T04:57:00;-0.20;99.90
12688;DHT22;6408;59.388;17.798;2022-12-18T04:59:28;-0.20;99.90
12688;DHT22;6408;59.388;17.798;2022-12-18T05:01:56;-0.20;99.90
12688;DHT22;6408;59.388;17.798;2022-12-18T05:04:24;-0.20;99.90
12688;DHT22;6408;59.388;17.798;2022-12-18T05:06:52;-0.20;99.90
12688;DHT22;6408;59.388;17.798;2022-12-18T05:09:19;-0.30;99.90
12688;DHT22;6408;59.388;17.798;2022-12-18T05:11:46;-0.20;99.90
12688;DHT22;6408;59.388;17.798;2022-12-18T05:14:14;-0.20;99.90
12688;DHT22;6408;59.388;17.798;2022-12-18T05:16:41;-0.20;99.90
12688;DHT22;6408;59.388;17.798;2022-12-18T05:19:08;-0.20;99.90
12688;DHT22;6408;59.388;17.798;2022-12-18T05:21:37;-0.30;99.90
12688;DHT22;6408;59.388;17.798;2022-12-18T05:24:05;-0.20;99.90
12688;DHT22;6408;59.388;17.798;2022-12-18T05:26:32;-0.20;99.90
12688;DHT22;6408;59.388;17.798;2022-12-18T05:29:00;-0.20;99.90
12688;DHT22;6408;59.388;17.798;2022-12-18T05:31:27;-0.10;99.90
12688;DHT22;6408;59.388;17.798;2022-12-18T05:33:54;-0.10;99.90
12688;DHT22;6408;59.388;17.798;2022-12-18T05:36:22;-0.10;99.90
12688;DHT22;6408;59.388;17.798;2022-12-18T05:38:50;-0.10;99.90
12688;DHT22;6408;59.388;17.798;2022-12-18T05:41:17;0.00;99.90
12688;DHT22;6408;59.388;17.798;2022-12-18T05:43:45;0.00;99.90
12688;DHT22;6408;59.388;17.798;2022-12-18T05:46:14;0.00;99.90
12688;DHT22;6408;59.388;17.798;2022-12-18T05:48:44;0.00;99.90
12688;DHT22;6408;59.388;17.798;2022-12-18T05:51:13;0.00;99.90
12688;DHT22;6408;59.388;17.798;2022-12-18T05:53:41;0.00;99.90
12688;DHT22;6408;59.388;17.798;2022-12-18T05:56:13;0.00;99.90
12688;DHT22;6408;59.388;17.798;2022-12-18T05:58:42;0.00;99.90
12688;DHT22;6408;59.388;17.798;2022-12-18T06:01:12;0.00;99.90
12688;DHT22;6408;59.388;17.798;2022-12-18T06:03:40;0.00;99.90
12688;DHT22;6408;59.388;17.798;2022-12-18T06:06:13;0.00;99.90
12688;DHT22;6408;59.388;17.798;2022-12-18T06:08:40;0.00;99.90
12688;DHT22;6408;59.388;17.798;2022-12-18T06:11:09;0.10;99.90
12688;DHT22;6408;59.388;17.798;2022-12-18T06:13:37;0.00;99.90
12688;DHT22;6408;59.388;17.798;2022-12-18T06:16:05;0.00;99.90
12688;DHT22;6408;59.388;17.798;2022-12-18T06:18:33;0.00;99.90
12688;DHT22;6408;59.388;17.798;2022-12-18T06:21:00;0.00;99.90
12688;DHT22;6408;59.388;17.798;2022-12-18T06:23:28;0.00;99.90
12688;DHT22;6408;59.388;17.798;2022-12-18T06:25:55;0.00;99.90
12688;DHT22;6408;59.388;17.798;2022-12-18T06:28:25;0.10;99.90
12688;DHT22;6408;59.388;17.798;2022-12-18T06:30:52;0.10;99.90
12688;DHT22;6408;59.388;17.798;2022-12-18T06:33:19;0.00;99.90
12688;DHT22;6408;59.388;17.798;2022-12-18T06:35:46;0.00;99.90
12688;DHT22;6408;59.388;17.798;2022-12-18T06:38:14;0.10;99.90
12688;DHT22;6408;59.388;17.798;2022-12-18T06:40:41;0.10;99.90
12688;DHT22;6408;59.388;17.798;2022-12-18T06:43:09;0.00;99.90
12688;DHT22;6408;59.388;17.798;2022-12-18T06:45:37;0.10;99.90
12688;DHT22;6408;59.388;17.798;2022-12-18T06:48:05;0.20;99.90
12688;DHT22;6408;59.388;17.798;2022-12-18T06:50:32;0.10;99.90
12688;DHT22;6408;59.388;17.798;2022-12-18T06:53:00;0.10;99.90
12688;DHT22;6408;59.388;17.798;2022-12-18T06:55:27;0.10;99.90
12688;DHT22;6408;59.388;17.798;2022-12-18T06:57:55;0.00;99.90
12688;DHT22;6408;59.388;17.798;2022-12-18T07:00:22;0.00;99.90
12688;DHT22;6408;59.388;17.798;2022-12-18T07:02:51;0.00;99.90
12688;DHT22;6408;59.388;17.798;2022-12-18T07:05:18;0.00;99.90
12688;DHT22;6408;59.388;17.798;2022-12-18T07:07:46;0.00;99.90
12688;DHT22;6408;59.388;17.798;2022-12-18T07:10:13;0.00;99.90
12688;DHT22;6408;59.388;17.798;2022-12-18T07:12:40;-0.10;99.90
12688;DHT22;6408;59.388;17.798;2022-12-18T07:15:08;0.00;99.90
12688;DHT22;6408;59.388;17.798;2022-12-18T07:17:36;-0.10;99.90
12688;DHT22;6408;59.388;17.798;2022-12-18T07:20:06;-0.10;99.90
12688;DHT22;6408;59.388;17.798;2022-12-18T07:22:34;0.00;99.90
12688;DHT22;6408;59.388;17.798;2022-12-18T07:25:01;0.00;99.90
12688;DHT22;6408;59.388;17.798;2022-12-18T07:27:29;-0.10;99.90
12688;DHT22;6408;59.388;17.798;2022-12-18T07:29:57;0.00;99.90
12688;DHT22;6408;59.388;17.798;2022-12-18T07:32:25;0.00;99.90
12688;DHT22;6408;59.388;17.798;2022-12-18T07:34:52;0.00;99.90
12688;DHT22;6408;59.388;17.798;2022-12-18T07:37:21;0.00;99.90
12688;DHT22;6408;59.388;17.798;2022-12-18T07:39:49;0.10;99.90
12688;DHT22;6408;59.388;17.798;2022-12-18T07:42:17;0.10;99.90
12688;DHT22;6408;59.388;17.798;2022-12-18T07:45:00;0.00;99.90
12688;DHT22;6408;59.388;17.798;2022-12-18T07:47:33;0.00;99.90
12688;DHT22;6408;59.388;17.798;2022-12-18T07:50:01;0.10;99.90
12688;DHT22;6408;59.388;17.798;2022-12-18T07:52:30;0.00;99.90
12688;DHT22;6408;59.388;17.798;2022-12-18T07:54:58;0.10;99.90
12688;DHT22;6408;59.388;17.798;2022-12-18T07:57:25;0.10;99.90
12688;DHT22;6408;59.388;17.798;2022-12-18T07:59:53;0.20;99.90
12688;DHT22;6408;59.388;17.798;2022-12-18T08:02:20;0.10;99.90
12688;DHT22;6408;59.388;17.798;2022-12-18T08:04:48;0.10;99.90
12688;DHT22;6408;59.388;17.798;2022-12-18T08:07:15;0.20;99.90
12688;DHT22;6408;59.388;17.798;2022-12-18T08:09:44;0.30;99.90
12688;DHT22;6408;59.388;17.798;2022-12-18T08:12:12;0.30;99.90
12688;DHT22;6408;59.388;17.798;2022-12-18T08:14:39;0.30;99.90
12688;DHT22;6408;59.388;17.798;2022-12-18T08:17:07;0.30;99.90
12688;DHT22;6408;59.388;17.798;2022-12-18T08:19:35;0.40;99.90
12688;DHT22;6408;59.388;17.798;2022-12-18T08:22:02;0.40;99.90
12688;DHT22;6408;59.388;17.798;2022-12-18T08:24:30;0.50;99.90
12688;DHT22;6408;59.388;17.798;2022-12-18T08:26:59;0.60;99.90
12688;DHT22;6408;59.388;17.798;2022-12-18T08:29:27;0.60;99.90
12688;DHT22;6408;59.388;17.798;2022-12-18T08:31:56;0.60;99.90
12688;DHT22;6408;59.388;17.798;2022-12-18T08:34:23;0.70;99.90
12688;DHT22;6408;59.388;17.798;2022-12-18T08:36:51;0.80;99.90
12688;DHT22;6408;59.388;17.798;2022-12-18T08:39:18;0.80;99.90
12688;DHT22;6408;59.388;17.798;2022-12-18T08:41:46;0.90;99.90
12688;DHT22;6408;59.388;17.798;2022-12-18T08:44:36;0.90;99.90
12688;DHT22;6408;59.388;17.798;2022-12-18T08:47:05;0.90;99.90
12688;DHT22;6408;59.388;17.798;2022-12-18T08:49:33;1.00;99.90
12688;DHT22;6408;59.388;17.798;2022-12-18T08:52:01;1.00;99.90
12688;DHT22;6408;59.388;17.798;2022-12-18T08:54:30;1.10;99.90
12688;DHT22;6408;59.388;17.798;2022-12-18T08:56:57;1.10;99.90
12688;DHT22;6408;59.388;17.798;2022-12-18T08:59:25;1.10;99.90
12688;DHT22;6408;59.388;17.798;2022-12-18T09:01:55;1.10;99.90
12688;DHT22;6408;59.388;17.798;2022-12-18T09:04:23;1.20;99.90
12688;DHT22;6408;59.388;17.798;2022-12-18T09:06:50;1.20;99.90
12688;DHT22;6408;59.388;17.798;2022-12-18T09:09:18;1.20;99.90
12688;DHT22;6408;59.388;17.798;2022-12-18T09:11:46;1.20;99.90
12688;DHT22;6408;59.388;17.798;2022-12-18T09:14:13;1.20;99.90
12688;DHT22;6408;59.388;17.798;2022-12-18T09:16:41;1.30;99.90
12688;DHT22;6408;59.388;17.798;2022-12-18T09:19:10;1.30;99.90
12688;DHT22;6408;59.388;17.798;2022-12-18T09:21:38;1.30;99.90
12688;DHT22;6408;59.388;17.798;2022-12-18T09:24:08;1.30;99.90
12688;DHT22;6408;59.388;17.798;2022-12-18T09:26:38;1.40;99.90
12688;DHT22;6408;59.388;17.798;2022-12-18T09:29:06;1.40;99.90
12688;DHT22;6408;59.388;17.798;2022-12-18T09:31:35;1.40;99.90
12688;DHT22;6408;59.388;17.798;2022-12-18T09:34:03;1.50;99.90
12688;DHT22;6408;59.388;17.798;2022-12-18T09:36:35;1.40;99.90
12688;DHT22;6408;59.388;17.798;2022-12-18T09:39:03;1.40;99.90
12688;DHT22;6408;59.388;17.798;2022-12-18T09:41:40;1.50;99.90
12688;DHT22;6408;59.388;17.798;2022-12-18T09:44:16;1.50;99.90
12688;DHT22;6408;59.388;17.798;2022-12-18T09:46:47;1.50;99.90
12688;DHT22;6408;59.388;17.798;2022-12-18T09:49:18;1.50;99.90
12688;DHT22;6408;59.388;17.798;2022-12-18T09:51:52;1.60;99.90
12688;DHT22;6408;59.388;17.798;2022-12-18T09:54:23;1.60;99.90
12688;DHT22;6408;59.388;17.798;2022-12-18T09:56:52;1.60;99.90
12688;DHT22;6408;59.388;17.798;2022-12-18T09:59:24;1.60;99.90
12688;DHT22;6408;59.388;17.798;2022-12-18T10:01:52;1.60;99.90
12688;DHT22;6408;59.388;17.798;2022-12-18T10:04:20;1.60;99.90
12688;DHT22;6408;59.388;17.798;2022-12-18T10:06:54;1.60;99.90
12688;DHT22;6408;59.388;17.798;2022-12-18T10:09:28;1.70;99.90
12688;DHT22;6408;59.388;17.798;2022-12-18T10:12:08;1.70;99.90
12688;DHT22;6408;59.388;17.798;2022-12-18T10:14:43;1.70;99.90
12688;DHT22;6408;59.388;17.798;2022-12-18T10:17:19;1.70;99.90
12688;DHT22;6408;59.388;17.798;2022-12-18T10:19:54;1.70;99.90
12688;DHT22;6408;59.388;17.798;2022-12-18T10:22:35;1.70;99.90
12688;DHT22;6408;59.388;17.798;2022-12-18T10:25:10;1.80;99.90
12688;DHT22;6408;59.388;17.798;2022-12-18T10:27:41;1.70;99.90
12688;DHT22;6408;59.388;17.798;2022-12-18T10:30:13;1.70;99.90
12688;DHT22;6408;59.388;17.798;2022-12-18T10:32:41;1.70;99.90
12688;DHT22;6408;59.388;17.798;2022-12-18T10:35:17;1.80;99.90
12688;DHT22;6408;59.388;17.798;2022-12-18T10:38:05;1.90;99.90
12688;DHT22;6408;59.388;17.798;2022-12-18T10:40:47;1.70;99.90
12688;DHT22;6408;59.388;17.798;2022-12-18T10:43:19;1.70;99.90
12688;DHT22;6408;59.388;17.798;2022-12-18T10:46:12;1.70;99.90
12688;DHT22;6408;59.388;17.798;2022-12-18T10:48:53;1.80;99.90
12688;DHT22;6408;59.388;17.798;2022-12-18T10:51:24;1.90;99.90
12688;DHT22;6408;59.388;17.798;2022-12-18T10:53:56;1.90;99.90
12688;DHT22;6408;59.388;17.798;2022-12-18T10:56:26;1.80;99.90
12688;DHT22;6408;59.388;17.798;2022-12-18T10:59:00;1.80;99.90
12688;DHT22;6408;59.388;17.798;2022-12-18T11:01:28;1.80;99.90
12688;DHT22;6408;59.388;17.798;2022-12-18T11:04:07;1.90;99.90
12688;DHT22;6408;59.388;17.798;2022-12-18T11:06:53;1.90;99.90
12688;DHT22;6408;59.388;17.798;2022-12-18T11:09:23;1.90;99.90
12688;DHT22;6408;59.388;17.798;2022-12-18T11:11:53;1.90;99.90
12688;DHT22;6408;59.388;17.798;2022-12-18T11:14:23;1.90;99.90
12688;DHT22;6408;59.388;17.798;2022-12-18T11:16:52;1.90;99.90
12688;DHT22;6408;59.388;17.798;2022-12-18T11:19:26;1.90;99.90
12688;DHT22;6408;59.388;17.798;2022-12-18T11:21:56;1.90;99.90
12688;DHT22;6408;59.388;17.798;2022-12-18T11:24:29;1.90;99.90
12688;DHT22;6408;59.388;17.798;2022-12-18T11:26:59;1.90;99.90
12688;DHT22;6408;59.388;17.798;2022-12-18T11:29:32;1.90;99.90
12688;DHT22;6408;59.388;17.798;2022-12-18T11:32:26;2.00;99.90
12688;DHT22;6408;59.388;17.798;2022-12-18T11:34:59;2.00;99.90
12688;DHT22;6408;59.388;17.798;2022-12-18T11:37:29;2.00;99.90
12688;DHT22;6408;59.388;17.798;2022-12-18T11:40:06;2.00;99.90
12688;DHT22;6408;59.388;17.798;2022-12-18T11:42:38;2.00;99.90
12688;DHT22;6408;59.388;17.798;2022-12-18T11:45:24;2.00;99.90
12688;DHT22;6408;59.388;17.798;2022-12-18T11:47:57;2.00;99.90
12688;DHT22;6408;59.388;17.798;2022-12-18T11:50:28;2.00;99.90
12688;DHT22;6408;59.388;17.798;2022-12-18T11:52:57;2.00;99.90
12688;DHT22;6408;59.388;17.798;2022-12-18T11:55:31;2.10;99.90
12688;DHT22;6408;59.388;17.798;2022-12-18T11:58:07;2.10;99.90
12688;DHT22;6408;59.388;17.798;2022-12-18T12:00:41;2.10;99.90
12688;DHT22;6408;59.388;17.798;2022-12-18T12:03:38;2.10;99.90
12688;DHT22;6408;59.388;17.798;2022-12-18T12:06:13;2.10;99.90
12688;DHT22;6408;59.388;17.798;2022-12-18T12:08:57;2.10;99.90
12688;DHT22;6408;59.388;17.798;2022-12-18T12:11:39;2.10;99.90
12688;DHT22;6408;59.388;17.798;2022-12-18T12:14:33;2.20;99.90
12688;DHT22;6408;59.388;17.798;2022-12-18T12:17:13;2.20;99.90
12688;DHT22;6408;59.388;17.798;2022-12-18T12:19:50;2.20;99.90
12688;DHT22;6408;59.388;17.798;2022-12-18T12:22:25;2.20;99.90
12688;DHT22;6408;59.388;17.798;2022-12-18T12:25:09;2.20;99.90
12688;DHT22;6408;59.388;17.798;2022-12-18T12:27:47;2.30;99.90
12688;DHT22;6408;59.388;17.798;2022-12-18T12:30:20;2.30;99.90
12688;DHT22;6408;59.388;17.798;2022-12-18T12:33:00;2.30;99.90
12688;DHT22;6408;59.388;17.798;2022-12-18T12:35:36;2.30;99.90
12688;DHT22;6408;59.388;17.798;2022-12-18T12:38:10;2.30;99.90
12688;DHT22;6408;59.388;17.798;2022-12-18T12:40:44;2.30;99.90
12688;DHT22;6408;59.388;17.798;2022-12-18T12:43:24;2.30;99.90
12688;DHT22;6408;59.388;17.798;2022-12-18T12:45:55;2.30;99.90
12688;DHT22;6408;59.388;17.798;2022-12-18T12:48:37;2.40;99.90
12688;DHT22;6408;59.388;17.798;2022-12-18T12:51:10;2.40;99.90
12688;DHT22;6408;59.388;17.798;2022-12-18T12:53:40;2.40;99.90
12688;DHT22;6408;59.388;17.798;2022-12-18T12:56:11;2.40;99.90
12688;DHT22;6408;59.388;17.798;2022-12-18T12:58:48;2.40;99.90
12688;DHT22;6408;59.388;17.798;2022-12-18T13:01:28;2.50;99.90
12688;DHT22;6408;59.388;17.798;2022-12-18T13:04:06;2.50;99.90
12688;DHT22;6408;59.388;17.798;2022-12-18T13:06:43;2.50;99.90
12688;DHT22;6408;59.388;17.798;2022-12-18T13:09:13;2.50;99.90
12688;DHT22;6408;59.388;17.798;2022-12-18T13:11:42;2.50;99.90
12688;DHT22;6408;59.388;17.798;2022-12-18T13:14:31;2.60;99.90
12688;DHT22;6408;59.388;17.798;2022-12-18T13:17:27;2.60;99.90
12688;DHT22;6408;59.388;17.798;2022-12-18T13:20:10;2.60;99.90
12688;DHT22;6408;59.388;17.798;2022-12-18T13:22:41;2.60;99.90
12688;DHT22;6408;59.388;17.798;2022-12-18T13:25:29;2.60;99.90
12688;DHT22;6408;59.388;17.798;2022-12-18T13:28:06;2.60;99.90
12688;DHT22;6408;59.388;17.798;2022-12-18T13:30:49;2.60;99.90
12688;DHT22;6408;59.388;17.798;2022-12-18T13:33:40;2.50;99.90
12688;DHT22;6408;59.388;17.798;2022-12-18T13:36:25;2.40;99.90
12688;DHT22;6408;59.388;17.798;2022-12-18T13:39:32;2.40;99.90
12688;DHT22;6408;59.388;17.798;2022-12-18T13:42:35;2.50;99.90
12688;DHT22;6408;59.388;17.798;2022-12-18T13:45:40;2.50;99.90
12688;DHT22;6408;59.388;17.798;2022-12-18T13:48:22;2.50;99.90
12688;DHT22;6408;59.388;17.798;2022-12-18T13:50:53;2.60;99.90
12688;DHT22;6408;59.388;17.798;2022-12-18T13:53:24;2.60;99.90
12688;DHT22;6408;59.388;17.798;2022-12-18T13:55:54;2.60;99.90
12688;DHT22;6408;59.388;17.798;2022-12-18T13:58:21;2.70;99.90
12688;DHT22;6408;59.388;17.798;2022-12-18T14:00:49;2.70;99.90
12688;DHT22;6408;59.388;17.798;2022-12-18T14:03:33;2.70;99.90
12688;DHT22;6408;59.388;17.798;2022-12-18T14:06:06;2.70;99.90
12688;DHT22;6408;59.388;17.798;2022-12-18T14:08:38;2.70;99.90
12688;DHT22;6408;59.388;17.798;2022-12-18T14:11:07;2.70;99.90
12688;DHT22;6408;59.388;17.798;2022-12-18T14:13:41;2.70;99.90
12688;DHT22;6408;59.388;17.798;2022-12-18T14:16:14;2.60;99.90
12688;DHT22;6408;59.388;17.798;2022-12-18T14:18:46;2.70;99.90
12688;DHT22;6408;59.388;17.798;2022-12-18T14:21:21;2.70;99.90
12688;DHT22;6408;59.388;17.798;2022-12-18T14:23:49;2.70;99.90
12688;DHT22;6408;59.388;17.798;2022-12-18T14:26:30;2.70;99.90
12688;DHT22;6408;59.388;17.798;2022-12-18T14:29:00;2.60;99.90
12688;DHT22;6408;59.388;17.798;2022-12-18T14:31:30;2.50;99.90
12688;DHT22;6408;59.388;17.798;2022-12-18T14:34:00;2.60;99.90
12688;DHT22;6408;59.388;17.798;2022-12-18T14:36:28;2.60;99.90
12688;DHT22;6408;59.388;17.798;2022-12-18T14:38:56;2.50;99.90
12688;DHT22;6408;59.388;17.798;2022-12-18T14:41:25;2.50;99.90
12688;DHT22;6408;59.388;17.798;2022-12-18T14:43:54;2.50;99.90
12688;DHT22;6408;59.388;17.798;2022-12-18T14:46:30;2.50;99.90
12688;DHT22;6408;59.388;17.798;2022-12-18T14:49:03;2.50;99.90
12688;DHT22;6408;59.388;17.798;2022-12-18T14:51:32;2.50;99.90
12688;DHT22;6408;59.388;17.798;2022-12-18T14:54:02;2.40;99.90
12688;DHT22;6408;59.388;17.798;2022-12-18T14:56:31;2.40;99.90
12688;DHT22;6408;59.388;17.798;2022-12-18T14:59:00;2.50;99.90
12688;DHT22;6408;59.388;17.798;2022-12-18T15:01:30;2.50;99.90
12688;DHT22;6408;59.388;17.798;2022-12-18T15:04:01;2.50;99.90
12688;DHT22;6408;59.388;17.798;2022-12-18T15:06:34;2.40;99.90
12688;DHT22;6408;59.388;17.798;2022-12-18T15:09:05;2.50;99.90
12688;DHT22;6408;59.388;17.798;2022-12-18T15:11:44;2.50;99.90
12688;DHT22;6408;59.388;17.798;2022-12-18T15:17:15;2.50;99.90
12688;DHT22;6408;59.388;17.798;2022-12-18T15:19:46;2.50;99.90
12688;DHT22;6408;59.388;17.798;2022-12-18T15:22:21;2.50;99.90
12688;DHT22;6408;59.388;17.798;2022-12-18T15:24:50;2.50;99.90
12688;DHT22;6408;59.388;17.798;2022-12-18T15:27:29;2.50;99.90
12688;DHT22;6408;59.388;17.798;2022-12-18T15:30:17;2.50;99.90
12688;DHT22;6408;59.388;17.798;2022-12-18T15:32:45;2.50;99.90
12688;DHT22;6408;59.388;17.798;2022-12-18T15:35:19;2.50;99.90
12688;DHT22;6408;59.388;17.798;2022-12-18T15:37:47;2.50;99.90
12688;DHT22;6408;59.388;17.798;2022-12-18T15:40:15;2.50;99.90
12688;DHT22;6408;59.388;17.798;2022-12-18T15:42:43;2.60;99.90
12688;DHT22;6408;59.388;17.798;2022-12-18T15:45:28;2.60;99.90
12688;DHT22;6408;59.388;17.798;2022-12-18T15:47:56;2.50;99.90
12688;DHT22;6408;59.388;17.798;2022-12-18T15:50:25;2.50;99.90
12688;DHT22;6408;59.388;17.798;2022-12-18T15:52:53;2.60;99.90
12688;DHT22;6408;59.388;17.798;2022-12-18T15:55:23;2.60;99.90
12688;DHT22;6408;59.388;17.798;2022-12-18T15:58:10;2.60;99.90
12688;DHT22;6408;59.388;17.798;2022-12-18T16:00:38;2.60;99.90
12688;DHT22;6408;59.388;17.798;2022-12-18T16:03:06;2.60;99.90
12688;DHT22;6408;59.388;17.798;2022-12-18T16:05:37;2.60;99.90
12688;DHT22;6408;59.388;17.798;2022-12-18T16:08:04;2.60;99.90
12688;DHT22;6408;59.388;17.798;2022-12-18T16:10:32;2.50;99.90
12688;DHT22;6408;59.388;17.798;2022-12-18T16:12:59;2.50;99.90